createdAt,value
2023-02-19T00:01:22.901Z,55.02
2023-02-19T00:03:58.297Z,55.06
2023-02-19T00:06:26.859Z,55.59
2023-02-19T00:08:53.893Z,55.87
2023-02-19T00:11:23.111Z,56.00
2023-02-19T00:13:51.944Z,55.53
2023-02-19T00:16:21.688Z,55.74
2023-02-19T00:18:48.556Z,56.54
2023-02-19T00:21:18.079Z,56.23
2023-02-19T00:23:52.225Z,57.22
2023-02-19T00:26:19.378Z,57.29
2023-02-19T00:28:47.649Z,57.26
2023-02-19T00:31:23.515Z,57.44
2023-02-19T00:33:55.867Z,57.30
2023-02-19T00:36:23.383Z,58.13
2023-02-19T00:38:50.235Z,58.90
2023-02-19T00:41:19.617Z,58.08
2023-02-19T00:43:50.385Z,59.43
2023-02-19T00:46:21.222Z,58.51
2023-02-19T00:48:48.157Z,58.84
2023-02-19T00:51:15.608Z,60.08
2023-02-19T00:53:43.176Z,60.01
2023-02-19T00:56:10.665Z,60.49
2023-02-19T00:58:37.700Z,60.10
2023-02-19T01:01:06.492Z,61.42
2023-02-19T01:03:37.167Z,60.96
2023-02-19T01:06:05.127Z,61.21
2023-02-19T01:08:32.296Z,61.16
2023-02-19T01:10:59.189Z,61.81
2023-02-19T01:13:26.046Z,61.99
2023-02-19T01:15:52.626Z,63.39
2023-02-19T01:18:20.265Z,62.30
2023-02-19T01:20:47.033Z,62.19
2023-02-19T01:23:14.325Z,62.17
2023-02-19T01:25:43.659Z,62.50
2023-02-19T01:28:11.048Z,62.97
2023-02-19T01:30:39.257Z,63.97
2023-02-19T01:33:07.355Z,64.92
2023-02-19T01:35:34.344Z,64.29
2023-02-19T01:38:00.862Z,64.42
2023-02-19T01:40:27.491Z,64.56
2023-02-19T01:42:54.082Z,64.87
2023-02-19T01:45:32.449Z,65.73
2023-02-19T01:48:06.517Z,65.25
2023-02-19T01:50:38.869Z,64.58
2023-02-19T01:53:08.506Z,65.30
2023-02-19T01:55:35.591Z,65.10
2023-02-19T01:58:03.455Z,65.28
2023-02-19T02:00:30.778Z,64.77
2023-02-19T02:02:58.575Z,65.53
2023-02-19T02:05:34.246Z,65.33
2023-02-19T02:08:21.587Z,64.75
2023-02-19T02:10:50.074Z,65.69
2023-02-19T02:13:16.772Z,65.75
2023-02-19T02:16:23.981Z,67.10
2023-02-19T02:18:59.832Z,66.28
2023-02-19T02:21:49.033Z,66.24
2023-02-19T02:24:18.289Z,66.64
2023-02-19T02:26:57.909Z,67.82
2023-02-19T02:29:33.200Z,67.17
2023-02-19T02:32:08.532Z,68.24
2023-02-19T02:35:01.154Z,68.16
2023-02-19T02:37:33.519Z,67.92
2023-02-19T02:40:00.752Z,67.50
2023-02-19T02:42:27.281Z,68.28
2023-02-19T02:45:17.684Z,68.91
2023-02-19T02:47:57.247Z,69.33
2023-02-19T02:50:34.597Z,70.38
2023-02-19T02:53:24.485Z,69.87
2023-02-19T02:55:53.501Z,71.53
2023-02-19T02:58:23.924Z,72.69
2023-02-19T03:01:15.806Z,72.74
2023-02-19T03:03:44.925Z,74.41
2023-02-19T03:06:15.406Z,74.55
2023-02-19T03:08:53.761Z,74.21
2023-02-19T03:11:39.311Z,75.31
2023-02-19T03:14:31.552Z,75.05
2023-02-19T03:17:26.916Z,73.58
2023-02-19T03:19:57.259Z,73.44
2023-02-19T03:22:29.982Z,73.33
2023-02-19T03:25:30.769Z,73.19
2023-02-19T03:28:00.536Z,72.64
2023-02-19T03:30:34.034Z,72.52
2023-02-19T03:33:08.376Z,72.42
2023-02-19T03:35:44.438Z,73.56
2023-02-19T03:38:18.669Z,74.44
2023-02-19T03:40:56.236Z,74.08
2023-02-19T03:43:42.107Z,73.35
2023-02-19T03:46:27.762Z,72.94
2023-02-19T03:49:05.856Z,72.43
2023-02-19T03:51:39.162Z,72.65
2023-02-19T03:54:38.104Z,74.81
2023-02-19T03:57:17.966Z,73.53
2023-02-19T04:00:05.539Z,74.98
2023-02-19T04:02:44.018Z,72.66
2023-02-19T04:05:17.101Z,72.43
2023-02-19T04:07:48.880Z,71.65
2023-02-19T04:10:17.793Z,72.82
2023-02-19T04:12:50.318Z,72.04
2023-02-19T04:15:22.898Z,72.45
2023-02-19T04:17:59.718Z,72.69
2023-02-19T04:20:32.073Z,72.47
2023-02-19T04:22:58.973Z,72.80
2023-02-19T04:25:27.789Z,72.14
2023-02-19T04:27:54.523Z,73.49
2023-02-19T04:30:21.325Z,74.54
2023-02-19T04:32:48.151Z,73.26
2023-02-19T04:35:14.692Z,73.11
2023-02-19T04:37:41.205Z,72.80
2023-02-19T04:40:08.424Z,72.52
2023-02-19T04:42:34.912Z,72.02
2023-02-19T04:45:01.420Z,72.06
2023-02-19T04:47:27.976Z,72.00
2023-02-19T04:49:54.515Z,72.15
2023-02-19T04:52:21.036Z,72.12
2023-02-19T04:54:47.575Z,71.80
2023-02-19T04:57:14.155Z,71.91
2023-02-19T04:59:40.748Z,71.52
2023-02-19T05:02:07.293Z,71.34
2023-02-19T05:04:34.003Z,71.63
2023-02-19T05:07:00.630Z,71.17
2023-02-19T05:09:27.131Z,71.01
2023-02-19T05:11:53.732Z,71.10
2023-02-19T05:14:20.291Z,71.02
2023-02-19T05:16:46.891Z,70.89
2023-02-19T05:19:13.910Z,70.89
2023-02-19T05:21:40.912Z,70.19
2023-02-19T05:24:07.910Z,69.89
2023-02-19T05:26:35.066Z,70.35
2023-02-19T05:29:01.966Z,70.89
2023-02-19T05:31:28.965Z,71.66
2023-02-19T05:33:56.854Z,72.13
2023-02-19T05:36:23.973Z,72.68
2023-02-19T05:38:56.590Z,73.38
2023-02-19T05:41:33.339Z,73.31
2023-02-19T05:44:00.148Z,73.34
2023-02-19T05:46:31.926Z,73.78
2023-02-19T05:48:58.521Z,73.73
2023-02-19T05:51:27.012Z,73.76
2023-02-19T05:53:53.731Z,73.82
2023-02-19T05:56:26.501Z,74.06
2023-02-19T05:58:54.292Z,74.57
2023-02-19T06:01:23.357Z,74.43
2023-02-19T06:03:49.986Z,74.46
2023-02-19T06:06:18.459Z,73.99
2023-02-19T06:08:44.967Z,73.60
2023-02-19T06:11:11.951Z,73.64
2023-02-19T06:13:38.659Z,73.91
2023-02-19T06:16:06.663Z,74.79
2023-02-19T06:18:33.559Z,74.23
2023-02-19T06:21:08.538Z,76.05
2023-02-19T06:23:35.364Z,75.53
2023-02-19T06:26:23.249Z,75.04
2023-02-19T06:28:52.124Z,74.77
2023-02-19T06:31:20.688Z,75.22
2023-02-19T06:33:47.504Z,74.87
2023-02-19T06:36:17.278Z,74.44
2023-02-19T06:38:44.228Z,74.34
2023-02-19T06:41:12.301Z,73.96
2023-02-19T06:43:39.020Z,73.91
2023-02-19T06:46:07.625Z,74.33
2023-02-19T06:48:34.833Z,74.64
2023-02-19T06:51:01.699Z,75.02
2023-02-19T06:53:28.391Z,75.12
2023-02-19T06:56:04.404Z,74.64
2023-02-19T06:58:32.216Z,75.52
2023-02-19T07:00:59.172Z,75.34
2023-02-19T07:03:26.550Z,75.68
2023-02-19T07:05:53.726Z,75.59
2023-02-19T07:08:20.660Z,75.02
2023-02-19T07:10:57.649Z,75.77
2023-02-19T07:13:26.773Z,75.70
2023-02-19T07:15:59.740Z,75.81
2023-02-19T07:18:26.488Z,76.32
2023-02-19T07:20:53.031Z,76.25
2023-02-19T07:23:19.559Z,76.14
2023-02-19T07:25:46.112Z,75.69
2023-02-19T07:28:12.673Z,75.61
2023-02-19T07:30:39.183Z,75.90
2023-02-19T07:33:05.731Z,75.73
2023-02-19T07:35:32.233Z,75.57
2023-02-19T07:37:58.744Z,75.74
2023-02-19T07:40:25.253Z,75.68
2023-02-19T07:42:51.736Z,75.76
2023-02-19T07:45:18.294Z,75.40
2023-02-19T07:47:44.912Z,74.58
2023-02-19T07:50:13.755Z,74.02
2023-02-19T07:52:40.567Z,71.28
2023-02-19T07:55:07.172Z,69.76
2023-02-19T07:57:33.684Z,67.30
2023-02-19T08:00:00.527Z,66.52
2023-02-19T08:02:45.491Z,65.11
2023-02-19T08:05:13.525Z,64.93
2023-02-19T08:07:40.624Z,64.66
2023-02-19T08:10:26.236Z,63.95
2023-02-19T08:13:16.173Z,64.08
2023-02-19T08:15:43.156Z,63.06
2023-02-19T08:18:10.906Z,63.13
2023-02-19T08:20:37.858Z,61.87
2023-02-19T08:23:04.497Z,63.23
2023-02-19T08:25:31.089Z,62.41
2023-02-19T08:27:57.625Z,62.30
2023-02-19T08:30:24.552Z,62.15
2023-02-19T08:32:51.197Z,60.93
2023-02-19T08:35:17.784Z,59.81
2023-02-19T08:37:44.623Z,60.38
2023-02-19T08:40:11.996Z,60.76
2023-02-19T08:42:38.648Z,61.30
2023-02-19T08:45:05.535Z,61.02
2023-02-19T08:47:34.344Z,60.28
2023-02-19T08:50:00.949Z,60.15
2023-02-19T08:52:27.501Z,59.83
2023-02-19T08:54:54.080Z,59.66
2023-02-19T08:57:20.943Z,59.66
2023-02-19T08:59:47.450Z,59.43
2023-02-19T09:02:13.953Z,60.10
2023-02-19T09:04:40.455Z,60.43
2023-02-19T09:07:09.416Z,60.20
2023-02-19T09:09:40.150Z,61.02
2023-02-19T09:12:08.605Z,60.88
2023-02-19T09:14:36.133Z,61.46
2023-02-19T09:17:05.089Z,61.12
2023-02-19T09:19:32.416Z,61.19
2023-02-19T09:21:59.281Z,61.61
2023-02-19T09:24:25.909Z,62.02
2023-02-19T09:26:53.980Z,61.61
2023-02-19T09:29:25.340Z,61.59
2023-02-19T09:31:57.064Z,61.81
2023-02-19T09:34:24.621Z,61.36
2023-02-19T09:36:51.656Z,61.34
2023-02-19T09:39:18.669Z,62.30
2023-02-19T09:41:49.215Z,61.37
2023-02-19T09:44:25.893Z,62.00
2023-02-19T09:46:53.939Z,60.50
2023-02-19T09:49:32.084Z,58.25
2023-02-19T09:52:07.643Z,59.59
2023-02-19T09:54:37.317Z,60.15
2023-02-19T09:57:04.775Z,59.87
2023-02-19T09:59:44.161Z,59.23
2023-02-19T10:02:15.186Z,59.31
2023-02-19T10:04:43.990Z,60.28
2023-02-19T10:07:14.249Z,58.77
2023-02-19T10:09:40.944Z,59.61
2023-02-19T10:12:25.430Z,58.13
2023-02-19T10:15:15.331Z,58.70
2023-02-19T10:17:41.898Z,59.63
2023-02-19T10:20:15.455Z,59.38
2023-02-19T10:22:42.692Z,57.40
2023-02-19T10:25:15.712Z,59.03
2023-02-19T10:27:43.793Z,59.47
2023-02-19T10:30:30.363Z,60.86
2023-02-19T10:33:16.285Z,60.51
2023-02-19T10:36:21.703Z,60.53
2023-02-19T10:38:48.442Z,60.81
2023-02-19T10:41:18.006Z,61.19
2023-02-19T10:43:52.667Z,60.80
2023-02-19T10:46:21.319Z,60.63
2023-02-19T10:48:55.141Z,60.67
2023-02-19T10:51:30.631Z,60.08
2023-02-19T10:54:20.899Z,58.81
2023-02-19T10:56:47.529Z,56.64
2023-02-19T10:59:26.264Z,54.85
2023-02-19T11:01:58.597Z,57.45
2023-02-19T11:04:27.555Z,57.18
2023-02-19T11:06:54.839Z,54.63
2023-02-19T11:09:37.647Z,53.11
2023-02-19T11:12:05.809Z,51.13
2023-02-19T11:14:34.361Z,51.96
2023-02-19T11:17:04.887Z,53.29
2023-02-19T11:19:38.073Z,53.22
2023-02-19T11:22:21.073Z,51.41
2023-02-19T11:24:55.438Z,51.34
2023-02-19T11:27:24.957Z,53.96
2023-02-19T11:29:51.575Z,54.06
2023-02-19T11:32:29.826Z,51.95
2023-02-19T11:35:17.768Z,53.71
2023-02-19T11:38:02.213Z,52.95
2023-02-19T11:40:53.184Z,52.53
2023-02-19T11:43:31.913Z,52.62
2023-02-19T11:46:32.817Z,49.99
2023-02-19T11:49:34.001Z,50.75
2023-02-19T11:52:27.469Z,48.22
2023-02-19T11:55:00.783Z,49.01
2023-02-19T11:57:50.542Z,46.82
2023-02-19T12:00:31.024Z,47.07
2023-02-19T12:03:10.052Z,47.77
2023-02-19T12:06:03.334Z,47.68
2023-02-19T12:08:41.889Z,48.47
2023-02-19T12:11:29.200Z,47.93
2023-02-19T12:14:20.617Z,47.69
2023-02-19T12:16:56.415Z,47.86
2023-02-19T12:19:58.511Z,46.19
2023-02-19T12:22:33.501Z,46.30
2023-02-19T12:25:06.065Z,46.46
2023-02-19T12:28:07.931Z,44.10
2023-02-19T12:30:53.496Z,45.12
2023-02-19T12:33:57.977Z,44.17
2023-02-19T12:36:37.344Z,44.81
2023-02-19T12:39:12.621Z,45.42
2023-02-19T12:42:18.213Z,44.63
2023-02-19T12:45:10.442Z,44.41
2023-02-19T12:47:42.149Z,45.45
2023-02-19T12:50:21.251Z,44.68
2023-02-19T12:52:57.183Z,44.42
2023-02-19T12:55:41.465Z,43.81
2023-02-19T12:58:14.646Z,43.90
2023-02-19T13:00:50.547Z,43.77
2023-02-19T13:03:31.808Z,43.89
2023-02-19T13:06:03.677Z,44.57
2023-02-19T13:09:06.298Z,44.08
2023-02-19T13:12:03.236Z,44.42
2023-02-19T13:15:02.687Z,44.54
2023-02-19T13:17:41.343Z,44.82
2023-02-19T13:20:27.442Z,44.83
2023-02-19T13:23:15.814Z,45.44
2023-02-19T13:26:02.345Z,45.36
2023-02-19T13:28:41.268Z,44.22
2023-02-19T13:31:56.613Z,45.09
2023-02-19T13:34:43.035Z,45.09
2023-02-19T13:37:11.459Z,45.17
2023-02-19T13:39:48.646Z,44.70
2023-02-19T13:42:29.009Z,45.00
2023-02-19T13:44:57.996Z,44.13
2023-02-19T13:47:59.557Z,43.06
2023-02-19T13:50:32.554Z,44.84
2023-02-19T13:53:01.021Z,45.16
2023-02-19T13:55:44.899Z,44.33
2023-02-19T13:58:30.216Z,43.58
2023-02-19T14:00:56.759Z,44.67
2023-02-19T14:03:52.054Z,44.02
2023-02-19T14:06:18.997Z,45.07
2023-02-19T14:08:50.305Z,42.38
2023-02-19T14:11:17.621Z,44.54
2023-02-19T14:13:50.748Z,42.01
2023-02-19T14:17:04.507Z,42.24
2023-02-19T14:19:43.190Z,42.94
2023-02-19T14:22:53.104Z,43.45
2023-02-19T14:25:34.500Z,43.99
2023-02-19T14:28:03.028Z,44.65
2023-02-19T14:30:32.627Z,44.19
2023-02-19T14:33:10.129Z,43.80
2023-02-19T14:35:44.674Z,42.99
2023-02-19T14:38:22.557Z,41.87
2023-02-19T14:40:50.621Z,43.75
2023-02-19T14:43:19.699Z,43.12
2023-02-19T14:45:52.071Z,42.52
2023-02-19T14:48:24.370Z,43.48
2023-02-19T14:50:55.904Z,43.40
2023-02-19T14:53:25.295Z,44.04
2023-02-19T14:55:53.229Z,44.27
2023-02-19T14:58:28.345Z,44.64
2023-02-19T15:00:54.912Z,44.81
2023-02-19T15:03:39.565Z,45.17
2023-02-19T15:06:11.518Z,45.50
2023-02-19T15:08:49.745Z,46.09
2023-02-19T15:11:20.798Z,46.44
2023-02-19T15:14:08.397Z,47.04
2023-02-19T15:16:36.351Z,47.31
2023-02-19T15:19:08.564Z,47.99
2023-02-19T15:21:38.880Z,48.04
2023-02-19T15:24:07.086Z,48.63
2023-02-19T15:26:48.374Z,48.36
2023-02-19T15:29:18.452Z,48.44
2023-02-19T15:31:57.272Z,49.36
2023-02-19T15:34:24.023Z,49.30
2023-02-19T15:36:53.311Z,49.36
2023-02-19T15:42:05.025Z,50.33
2023-02-19T15:44:41.534Z,50.02
2023-02-19T15:49:54.552Z,52.07
2023-02-19T15:52:59.934Z,53.40
2023-02-19T15:55:34.603Z,52.54
2023-02-19T15:58:23.497Z,52.46
2023-02-19T16:00:54.908Z,52.90
2023-02-19T16:03:24.378Z,52.38
2023-02-19T16:06:11.487Z,54.24
2023-02-19T16:08:39.753Z,53.69
2023-02-19T16:11:24.453Z,53.98
2023-02-19T16:13:51.865Z,53.62
2023-02-19T16:16:34.936Z,54.07
2023-02-19T16:19:01.793Z,54.18
2023-02-19T16:21:28.680Z,54.46
2023-02-19T16:24:17.061Z,54.14
2023-02-19T16:26:45.357Z,54.35
2023-02-19T16:29:30.373Z,54.00
2023-02-19T16:31:59.724Z,54.34
2023-02-19T16:34:42.964Z,54.13
2023-02-19T16:37:38.916Z,55.09
2023-02-19T16:40:08.584Z,53.94
2023-02-19T16:42:36.656Z,55.48
2023-02-19T16:45:03.370Z,57.25
2023-02-19T16:47:32.299Z,58.51
2023-02-19T16:50:04.201Z,58.84
2023-02-19T16:52:31.377Z,60.94
2023-02-19T16:54:57.965Z,62.77
2023-02-19T16:57:24.714Z,67.71
2023-02-19T16:59:51.392Z,72.57
2023-02-19T17:02:21.274Z,72.29
2023-02-19T17:04:49.005Z,76.39
2023-02-19T17:07:17.711Z,76.37
2023-02-19T17:09:44.438Z,78.23
2023-02-19T17:12:12.974Z,81.53
2023-02-19T17:14:39.561Z,81.92
2023-02-19T17:17:06.617Z,81.38
2023-02-19T17:19:33.330Z,81.60
2023-02-19T17:21:59.977Z,80.86
2023-02-19T17:24:26.656Z,78.70
2023-02-19T17:26:53.208Z,80.51
2023-02-19T17:29:20.212Z,79.53
2023-02-19T17:31:46.927Z,80.12
2023-02-19T17:34:13.567Z,80.06
2023-02-19T17:36:42.851Z,79.25
2023-02-19T17:39:15.769Z,79.65
2023-02-19T17:41:42.554Z,79.85
2023-02-19T17:44:09.432Z,80.17
2023-02-19T17:46:36.515Z,78.63
2023-02-19T17:49:03.613Z,78.90
2023-02-19T17:51:30.183Z,78.89
2023-02-19T17:53:56.956Z,79.26
2023-02-19T17:56:26.210Z,78.33
2023-02-19T17:58:55.015Z,79.24
2023-02-19T18:01:21.890Z,79.76
2023-02-19T18:03:49.913Z,81.23
2023-02-19T18:06:16.765Z,80.70
2023-02-19T18:08:51.306Z,82.32
2023-02-19T18:11:19.453Z,81.77
2023-02-19T18:13:46.129Z,82.41
2023-02-19T18:16:15.620Z,82.09
2023-02-19T18:18:42.404Z,81.36
2023-02-19T18:21:10.335Z,82.84
2023-02-19T18:23:37.514Z,81.88
2023-02-19T18:26:07.660Z,82.74
2023-02-19T18:28:35.600Z,81.15
2023-02-19T18:31:02.655Z,81.61
2023-02-19T18:33:29.267Z,80.09
2023-02-19T18:35:55.821Z,80.14
2023-02-19T18:38:22.405Z,80.33
2023-02-19T18:40:49.007Z,79.64
2023-02-19T18:43:15.573Z,79.11
2023-02-19T18:45:43.422Z,79.53
2023-02-19T18:48:10.114Z,79.78
2023-02-19T18:50:36.694Z,78.55
2023-02-19T18:53:03.410Z,78.57
2023-02-19T18:55:30.013Z,78.87
2023-02-19T18:57:56.988Z,78.09
2023-02-19T19:00:26.497Z,78.24
2023-02-19T19:02:58.116Z,78.04
2023-02-19T19:05:24.747Z,78.61
2023-02-19T19:07:55.727Z,78.44
2023-02-19T19:10:23.397Z,78.57
2023-02-19T19:12:50.700Z,78.42
2023-02-19T19:15:18.905Z,78.17
2023-02-19T19:17:46.384Z,78.72
2023-02-19T19:20:13.761Z,78.67
2023-02-19T19:22:40.487Z,78.12
2023-02-19T19:25:08.661Z,79.48
2023-02-19T19:27:35.384Z,79.19
2023-02-19T19:30:02.559Z,78.91
2023-02-19T19:32:29.245Z,79.62
2023-02-19T19:34:56.013Z,79.27
2023-02-19T19:37:22.577Z,79.62
2023-02-19T19:39:49.196Z,79.83
2023-02-19T19:42:15.922Z,79.69
2023-02-19T19:44:45.300Z,79.96
2023-02-19T19:47:11.826Z,79.68
2023-02-19T19:49:38.567Z,80.91
2023-02-19T19:52:05.270Z,79.13
2023-02-19T19:54:31.827Z,79.75
2023-02-19T19:56:58.370Z,79.63
2023-02-19T20:04:55.624Z,79.17
2023-02-19T20:07:22.150Z,79.14
2023-02-19T20:09:49.953Z,79.11
2023-02-19T20:12:17.528Z,80.06
2023-02-19T20:14:45.974Z,78.98
2023-02-19T20:17:13.379Z,79.38
2023-02-19T20:19:40.014Z,79.07
2023-02-19T20:22:06.704Z,77.98
2023-02-19T20:24:33.225Z,78.60
2023-02-19T20:27:01.996Z,78.31
2023-02-19T20:29:31.183Z,78.57
2023-02-19T20:31:59.921Z,79.08
2023-02-19T20:34:27.424Z,78.51
2023-02-19T20:36:54.344Z,78.01
2023-02-19T20:39:22.205Z,79.32
2023-02-19T20:41:51.798Z,78.73
2023-02-19T20:44:19.366Z,79.37
2023-02-19T20:46:48.608Z,80.12
2023-02-19T20:49:17.088Z,79.71
2023-02-19T20:51:48.994Z,80.19
2023-02-19T20:54:17.880Z,80.91
2023-02-19T20:56:49.647Z,79.69
2023-02-19T20:59:18.840Z,81.42
2023-02-19T21:01:45.938Z,81.70
2023-02-19T21:04:13.912Z,82.70
2023-02-19T21:06:42.022Z,82.16
2023-02-19T21:09:08.673Z,82.18
2023-02-19T21:11:35.278Z,81.99
2023-02-19T21:14:02.006Z,81.57
2023-02-19T21:16:30.728Z,81.06
2023-02-19T21:18:58.228Z,80.88
2023-02-19T21:21:26.253Z,80.48
2023-02-19T21:23:54.664Z,81.89
2023-02-19T21:26:21.854Z,81.08
2023-02-19T21:31:25.441Z,82.06
2023-02-19T21:33:52.089Z,82.12
2023-02-19T21:36:18.868Z,81.39
2023-02-19T21:38:45.438Z,81.49
2023-02-19T21:41:11.974Z,81.67
2023-02-19T21:43:38.543Z,82.54
2023-02-19T21:46:05.238Z,83.09
2023-02-19T21:48:31.795Z,82.76
2023-02-19T21:50:58.312Z,83.86
2023-02-19T21:53:24.819Z,82.96
2023-02-19T21:55:58.239Z,83.39
2023-02-19T21:58:25.590Z,85.22
2023-02-19T22:00:54.895Z,84.45
2023-02-19T22:03:21.557Z,84.28
2023-02-19T22:05:48.114Z,84.35
2023-02-19T22:08:15.963Z,84.35
2023-02-19T22:10:42.593Z,84.53
2023-02-19T22:13:10.474Z,85.21
2023-02-19T22:15:37.300Z,85.55
2023-02-19T22:23:27.462Z,85.54
2023-02-19T22:25:54.018Z,85.25
2023-02-19T22:28:20.537Z,83.79
2023-02-19T22:30:47.171Z,85.06
2023-02-19T22:33:13.681Z,85.27
2023-02-19T22:35:40.315Z,86.12
2023-02-19T22:38:07.013Z,85.97
2023-02-19T22:40:33.531Z,84.63
2023-02-19T22:43:00.059Z,84.55
2023-02-19T22:45:26.609Z,84.00
2023-02-19T22:47:56.432Z,84.25
2023-02-19T22:50:23.337Z,84.31
2023-02-19T22:52:50.412Z,84.33
2023-02-19T22:55:17.239Z,84.31
2023-02-19T22:57:43.748Z,84.04
2023-02-19T23:00:17.773Z,84.25
2023-02-19T23:02:46.717Z,84.12
2023-02-19T23:05:13.237Z,83.26
2023-02-19T23:07:43.215Z,83.57
2023-02-19T23:10:10.840Z,83.60
2023-02-19T23:12:38.143Z,83.13
2023-02-19T23:15:07.356Z,83.55
2023-02-19T23:17:33.855Z,83.03
2023-02-19T23:20:01.542Z,83.27
2023-02-19T23:22:28.519Z,84.12
2023-02-19T23:24:55.204Z,83.66
2023-02-19T23:27:24.154Z,84.05
2023-02-19T23:29:50.714Z,83.61
2023-02-19T23:32:20.850Z,83.28
2023-02-19T23:34:48.066Z,84.91
2023-02-19T23:37:15.396Z,84.94
2023-02-19T23:39:42.037Z,84.00
2023-02-19T23:42:15.144Z,84.01
2023-02-19T23:44:41.713Z,84.04
2023-02-19T23:47:08.334Z,84.26
2023-02-19T23:49:34.880Z,84.30
2023-02-19T23:52:01.423Z,84.07
2023-02-19T23:54:27.948Z,84.37
2023-02-19T23:56:56.177Z,84.25
2023-02-19T23:59:22.868Z,83.78
